createdAt,value
2022-09-20T00:00:35.864Z,69.36
2022-09-20T00:01:35.926Z,69.19
2022-09-20T00:02:35.800Z,69.16
2022-09-20T00:03:35.798Z,69.10
2022-09-20T00:04:35.857Z,69.04
2022-09-20T00:05:35.822Z,69.07
2022-09-20T00:06:35.791Z,69.10
2022-09-20T00:07:35.775Z,69.13
2022-09-20T00:08:35.766Z,69.16
2022-09-20T00:09:35.765Z,69.10
2022-09-20T00:10:35.765Z,69.16
2022-09-20T00:11:35.765Z,69.16
2022-09-20T00:12:35.747Z,69.17
2022-09-20T00:13:35.755Z,69.08
2022-09-20T00:14:35.751Z,69.16
2022-09-20T00:15:35.757Z,69.20
2022-09-20T00:16:35.819Z,69.32
2022-09-20T00:17:35.744Z,69.28
2022-09-20T00:18:35.733Z,69.28
2022-09-20T00:19:35.733Z,69.24
2022-09-20T00:20:35.760Z,69.15
2022-09-20T00:21:35.740Z,69.20
2022-09-20T00:22:35.723Z,69.16
2022-09-20T00:23:35.721Z,69.20
2022-09-20T00:24:35.712Z,69.21
2022-09-20T00:25:35.710Z,69.17
2022-09-20T00:26:35.718Z,69.17
2022-09-20T00:27:35.701Z,68.97
2022-09-20T00:28:35.708Z,68.94
2022-09-20T00:29:35.710Z,68.93
2022-09-20T00:30:35.710Z,68.83
2022-09-20T00:31:35.786Z,68.82
2022-09-20T00:32:35.699Z,68.89
2022-09-20T00:33:35.699Z,68.88
2022-09-20T00:34:35.701Z,68.78
2022-09-20T00:35:35.689Z,68.75
2022-09-20T00:36:35.709Z,68.73
2022-09-20T00:37:35.689Z,68.73
2022-09-20T00:38:35.689Z,68.63
2022-09-20T00:39:35.688Z,68.45
2022-09-20T00:40:35.738Z,68.47
2022-09-20T00:41:35.694Z,68.40
2022-09-20T00:42:35.676Z,68.32
2022-09-20T00:43:35.675Z,68.29
2022-09-20T00:44:35.677Z,68.34
2022-09-20T00:45:35.734Z,68.41
2022-09-20T00:46:35.688Z,68.39
2022-09-20T00:47:35.667Z,68.37
2022-09-20T00:48:35.676Z,68.25
2022-09-20T00:49:35.675Z,68.29
2022-09-20T00:50:35.675Z,68.14
2022-09-20T00:51:35.685Z,68.24
2022-09-20T00:52:35.675Z,68.19
2022-09-20T00:53:35.669Z,68.37
2022-09-20T00:54:35.669Z,68.42
2022-09-20T00:55:35.662Z,68.49
2022-09-20T00:56:35.662Z,68.25
2022-09-20T00:57:35.653Z,68.25
2022-09-20T00:58:35.642Z,68.22
2022-09-20T00:59:35.643Z,68.28
2022-09-20T01:00:35.643Z,68.43
2022-09-20T01:01:35.697Z,68.53
2022-09-20T01:02:35.705Z,68.52
2022-09-20T01:03:35.635Z,68.58
2022-09-20T01:04:35.632Z,68.70
2022-09-20T01:05:35.630Z,68.73
2022-09-20T01:06:35.633Z,68.68
2022-09-20T01:07:35.621Z,68.73
2022-09-20T01:08:35.622Z,68.83
2022-09-20T01:09:35.622Z,68.76
2022-09-20T01:10:35.621Z,68.83
2022-09-20T01:11:35.629Z,68.80
2022-09-20T01:12:35.623Z,68.77
2022-09-20T01:13:35.619Z,68.83
2022-09-20T01:14:35.610Z,68.79
2022-09-20T01:15:35.609Z,68.86
2022-09-20T01:16:35.671Z,68.88
2022-09-20T01:17:35.617Z,68.88
2022-09-20T01:18:35.608Z,68.91
2022-09-20T01:19:35.610Z,68.82
2022-09-20T01:20:35.620Z,68.71
2022-09-20T01:21:35.627Z,68.70
2022-09-20T01:22:35.620Z,68.62
2022-09-20T01:23:35.607Z,68.60
2022-09-20T01:24:35.617Z,68.61
2022-09-20T01:25:35.624Z,68.55
2022-09-20T01:26:35.626Z,68.54
2022-09-20T01:27:35.626Z,68.52
2022-09-20T01:28:35.626Z,68.57
2022-09-20T01:29:35.625Z,68.58
2022-09-20T01:30:35.643Z,68.45
2022-09-20T01:31:35.724Z,68.25
2022-09-20T01:32:35.645Z,68.00
2022-09-20T01:33:35.656Z,68.03
2022-09-20T01:34:35.656Z,68.00
2022-09-20T01:35:35.654Z,67.97
2022-09-20T01:36:35.674Z,67.98
2022-09-20T01:37:35.675Z,67.93
2022-09-20T01:38:35.676Z,67.83
2022-09-20T01:39:35.681Z,67.68
2022-09-20T01:40:35.765Z,67.69
2022-09-20T01:41:35.692Z,67.67
2022-09-20T01:42:35.683Z,67.63
2022-09-20T01:43:35.682Z,67.78
2022-09-20T01:44:35.672Z,67.79
2022-09-20T01:45:35.724Z,67.72
2022-09-20T01:46:35.673Z,67.73
2022-09-20T01:47:35.672Z,67.65
2022-09-20T01:48:35.671Z,67.79
2022-09-20T01:49:35.678Z,67.88
2022-09-20T01:50:35.681Z,67.94
2022-09-20T01:51:35.690Z,67.91
2022-09-20T01:52:35.699Z,67.97
2022-09-20T01:53:35.689Z,67.92
2022-09-20T01:54:35.692Z,67.97
2022-09-20T01:55:35.695Z,68.12
2022-09-20T01:56:35.709Z,68.15
2022-09-20T01:57:35.689Z,68.17
2022-09-20T01:58:35.692Z,68.23
2022-09-20T01:59:35.698Z,68.10
2022-09-20T02:00:35.695Z,68.19
2022-09-20T02:01:35.753Z,68.08
2022-09-20T02:02:35.772Z,68.10
2022-09-20T02:03:35.706Z,68.04
2022-09-20T02:04:35.705Z,68.04
2022-09-20T02:05:35.707Z,68.12
2022-09-20T02:06:35.724Z,68.15
2022-09-20T02:07:35.717Z,68.22
2022-09-20T02:08:35.725Z,68.15
2022-09-20T02:09:35.724Z,68.06
2022-09-20T02:10:35.733Z,67.86
2022-09-20T02:11:35.735Z,67.74
2022-09-20T02:12:35.725Z,67.76
2022-09-20T02:13:35.725Z,67.75
2022-09-20T02:14:35.744Z,67.76
2022-09-20T02:15:35.734Z,67.76
2022-09-20T02:16:35.826Z,67.82
2022-09-20T02:17:35.734Z,67.85
2022-09-20T02:18:35.732Z,67.81
2022-09-20T02:19:35.732Z,67.72
2022-09-20T02:20:35.723Z,67.71
2022-09-20T02:21:35.733Z,67.67
2022-09-20T02:22:35.725Z,67.62
2022-09-20T02:23:35.721Z,67.67
2022-09-20T02:24:35.712Z,67.62
2022-09-20T02:25:35.704Z,67.49
2022-09-20T02:26:35.722Z,67.40
2022-09-20T02:27:35.712Z,67.43
2022-09-20T02:28:35.720Z,67.46
2022-09-20T02:29:35.721Z,67.52
2022-09-20T02:30:35.722Z,67.53
2022-09-20T02:31:35.873Z,67.51
2022-09-20T02:32:35.719Z,67.49
2022-09-20T02:33:35.720Z,67.62
2022-09-20T02:34:35.720Z,67.75
2022-09-20T02:35:35.709Z,67.83
2022-09-20T02:36:35.700Z,67.87
2022-09-20T02:37:35.716Z,67.75
2022-09-20T02:38:35.709Z,67.43
2022-09-20T02:39:35.708Z,67.37
2022-09-20T02:40:35.811Z,67.39
2022-09-20T02:41:35.720Z,67.28
2022-09-20T02:42:35.837Z,67.19
2022-09-20T02:43:35.725Z,67.16
2022-09-20T02:44:35.727Z,67.10
2022-09-20T02:45:35.756Z,67.05
2022-09-20T02:46:35.716Z,67.18
2022-09-20T02:47:35.716Z,67.18
2022-09-20T02:48:35.706Z,67.37
2022-09-20T02:49:35.704Z,67.53
2022-09-20T02:50:35.706Z,67.60
2022-09-20T02:51:35.695Z,67.54
2022-09-20T02:52:35.705Z,67.43
2022-09-20T02:53:35.695Z,67.42
2022-09-20T02:54:35.694Z,67.49
2022-09-20T02:55:35.694Z,67.51
2022-09-20T02:56:35.705Z,67.45
2022-09-20T02:57:35.715Z,67.37
2022-09-20T02:58:35.706Z,67.39
2022-09-20T02:59:35.704Z,67.50
2022-09-20T03:00:35.704Z,67.60
2022-09-20T03:01:35.764Z,67.71
2022-09-20T03:02:35.784Z,67.77
2022-09-20T03:03:35.712Z,67.86
2022-09-20T03:04:35.713Z,68.01
2022-09-20T03:05:35.720Z,68.14
2022-09-20T03:06:35.731Z,68.32
2022-09-20T03:07:35.751Z,68.42
2022-09-20T03:08:35.751Z,68.47
2022-09-20T03:09:35.762Z,68.54
2022-09-20T03:10:35.771Z,68.46
2022-09-20T03:11:35.778Z,68.31
2022-09-20T03:12:35.789Z,68.16
2022-09-20T03:13:35.790Z,68.09
2022-09-20T03:14:35.792Z,68.14
2022-09-20T03:15:35.799Z,68.21
2022-09-20T03:16:35.850Z,68.26
2022-09-20T03:17:35.818Z,68.41
2022-09-20T03:18:35.808Z,68.54
2022-09-20T03:19:35.809Z,68.58
2022-09-20T03:20:35.809Z,68.72
2022-09-20T03:21:35.817Z,68.70
2022-09-20T03:22:35.828Z,68.72
2022-09-20T03:23:35.819Z,68.72
2022-09-20T03:24:35.825Z,68.68
2022-09-20T03:25:35.828Z,68.54
2022-09-20T03:26:35.826Z,68.52
2022-09-20T03:27:35.854Z,68.51
2022-09-20T03:28:35.836Z,68.53
2022-09-20T03:29:35.846Z,68.55
2022-09-20T03:30:35.853Z,68.47
2022-09-20T03:31:35.908Z,68.43
2022-09-20T03:32:35.865Z,68.35
2022-09-20T03:33:35.863Z,68.43
2022-09-20T03:34:35.865Z,68.53
2022-09-20T03:35:35.882Z,68.64
2022-09-20T03:36:35.875Z,68.80
2022-09-20T03:37:35.894Z,68.91
2022-09-20T03:38:35.884Z,68.78
2022-09-20T03:39:35.883Z,68.51
2022-09-20T03:40:35.925Z,68.33
2022-09-20T03:41:35.883Z,68.36
2022-09-20T03:42:35.911Z,68.24
2022-09-20T03:43:35.903Z,68.21
2022-09-20T03:44:35.907Z,68.26
2022-09-20T03:45:35.945Z,68.34
2022-09-20T03:46:35.922Z,68.49
2022-09-20T03:47:35.943Z,68.64
2022-09-20T03:48:35.943Z,68.75
2022-09-20T03:49:35.943Z,68.64
2022-09-20T03:50:35.941Z,68.78
2022-09-20T03:51:35.952Z,68.94
2022-09-20T03:52:35.969Z,69.01
2022-09-20T03:53:35.951Z,69.08
2022-09-20T03:54:35.974Z,69.14
2022-09-20T03:55:35.979Z,69.18
2022-09-20T03:56:35.981Z,69.22
2022-09-20T03:57:36.003Z,69.23
2022-09-20T03:58:35.984Z,69.33
2022-09-20T03:59:35.981Z,69.35
2022-09-20T04:00:35.996Z,69.38
2022-09-20T04:01:36.052Z,69.41
2022-09-20T04:02:36.034Z,69.34
2022-09-20T04:03:36.009Z,69.15
2022-09-20T04:04:36.009Z,68.92
2022-09-20T04:05:36.017Z,68.84
2022-09-20T04:06:36.028Z,68.86
2022-09-20T04:07:36.043Z,68.95
2022-09-20T04:08:40.022Z,68.96
2022-09-20T04:09:36.046Z,69.04
2022-09-20T04:10:36.054Z,68.94
2022-09-20T04:11:36.055Z,68.80
2022-09-20T04:12:36.084Z,68.51
2022-09-20T04:13:36.093Z,68.30
2022-09-20T04:14:36.097Z,68.06
2022-09-20T04:15:36.094Z,67.86
2022-09-20T04:16:36.133Z,68.01
2022-09-20T04:17:36.115Z,68.26
2022-09-20T04:18:36.107Z,68.32
2022-09-20T04:19:36.104Z,68.32
2022-09-20T04:20:36.112Z,68.41
2022-09-20T04:21:36.103Z,68.49
2022-09-20T04:22:36.138Z,68.71
2022-09-20T04:23:36.116Z,68.83
2022-09-20T04:24:36.112Z,68.85
2022-09-20T04:25:36.122Z,68.85
2022-09-20T04:26:36.124Z,68.91
2022-09-20T04:27:36.145Z,69.00
2022-09-20T04:28:36.129Z,69.10
2022-09-20T04:29:36.139Z,69.29
2022-09-20T04:30:36.139Z,69.41
2022-09-20T04:31:36.227Z,69.51
2022-09-20T04:32:36.141Z,69.60
2022-09-20T04:33:36.152Z,69.70
2022-09-20T04:34:36.146Z,69.77
2022-09-20T04:35:36.141Z,69.87
2022-09-20T04:36:36.130Z,69.67
2022-09-20T04:37:36.130Z,69.68
2022-09-20T04:38:36.137Z,69.63
2022-09-20T04:39:36.119Z,69.84
2022-09-20T04:40:36.196Z,70.01
2022-09-20T04:41:36.128Z,70.01
2022-09-20T04:42:36.138Z,69.97
2022-09-20T04:43:36.150Z,69.92
2022-09-20T04:44:36.145Z,69.88
2022-09-20T04:45:36.167Z,69.86
2022-09-20T04:46:36.137Z,69.84
2022-09-20T04:47:36.147Z,69.91
2022-09-20T04:48:36.156Z,69.98
2022-09-20T04:49:36.156Z,70.20
2022-09-20T04:50:36.148Z,70.15
2022-09-20T04:51:36.146Z,69.83
2022-09-20T04:52:36.146Z,70.02
2022-09-20T04:53:36.156Z,70.03
2022-09-20T04:54:36.154Z,69.97
2022-09-20T04:55:36.135Z,69.91
2022-09-20T04:56:36.136Z,69.87
2022-09-20T04:57:36.132Z,69.82
2022-09-20T04:58:36.136Z,69.69
2022-09-20T04:59:36.124Z,69.47
2022-09-20T05:00:36.121Z,69.37
2022-09-20T05:01:36.153Z,69.42
2022-09-20T05:02:36.151Z,69.49
2022-09-20T05:03:36.113Z,69.47
2022-09-20T05:04:36.113Z,69.26
2022-09-20T05:05:36.105Z,69.12
2022-09-20T05:06:36.103Z,69.04
2022-09-20T05:07:36.109Z,69.14
2022-09-20T05:08:36.112Z,69.33
2022-09-20T05:09:36.108Z,69.53
2022-09-20T05:10:36.120Z,69.63
2022-09-20T05:11:36.111Z,69.73
2022-09-20T05:12:36.123Z,69.74
2022-09-20T05:13:36.129Z,69.70
2022-09-20T05:14:36.114Z,69.62
2022-09-20T05:15:36.119Z,69.70
2022-09-20T05:16:37.791Z,69.77
2022-09-20T05:17:36.117Z,69.88
2022-09-20T05:18:36.130Z,69.96
2022-09-20T05:19:36.117Z,69.97
2022-09-20T05:20:36.112Z,69.83
2022-09-20T05:21:36.108Z,69.73
2022-09-20T05:22:36.110Z,69.64
2022-09-20T05:23:36.128Z,69.65
2022-09-20T05:24:36.118Z,69.73
2022-09-20T05:25:36.118Z,69.83
2022-09-20T05:26:36.117Z,69.96
2022-09-20T05:27:36.107Z,70.08
2022-09-20T05:28:36.128Z,70.14
2022-09-20T05:29:36.114Z,70.26
2022-09-20T05:30:36.118Z,70.36
2022-09-20T05:31:36.180Z,70.39
2022-09-20T05:32:36.124Z,70.17
2022-09-20T05:33:36.136Z,68.58
2022-09-20T05:34:36.134Z,67.94
2022-09-20T05:35:36.140Z,67.41
2022-09-20T05:36:36.126Z,67.25
2022-09-20T05:37:36.124Z,68.03
2022-09-20T05:38:36.156Z,69.49
2022-09-20T05:39:36.134Z,69.86
2022-09-20T05:40:36.195Z,70.02
2022-09-20T05:41:36.133Z,70.08
2022-09-20T05:42:36.133Z,70.18
2022-09-20T05:43:36.140Z,70.25
2022-09-20T05:44:36.151Z,70.32
2022-09-20T05:45:36.159Z,70.31
2022-09-20T05:46:36.124Z,70.26
2022-09-20T05:47:36.112Z,70.20
2022-09-20T05:48:36.110Z,70.19
2022-09-20T05:49:36.111Z,70.24
2022-09-20T05:50:36.110Z,70.30
2022-09-20T05:51:36.111Z,70.34
2022-09-20T05:52:36.121Z,70.42
2022-09-20T05:53:36.120Z,70.57
2022-09-20T05:54:36.129Z,70.54
2022-09-20T05:55:36.120Z,70.57
2022-09-20T05:56:36.129Z,70.59
2022-09-20T05:57:36.129Z,70.82
2022-09-20T05:58:36.119Z,71.03
2022-09-20T05:59:36.119Z,71.07
2022-09-20T06:00:36.109Z,71.07
2022-09-20T06:01:36.106Z,71.02
2022-09-20T06:02:36.139Z,71.13
2022-09-20T06:03:36.091Z,71.12
2022-09-20T06:04:36.097Z,71.13
2022-09-20T06:05:36.099Z,71.11
2022-09-20T06:06:36.086Z,71.09
2022-09-20T06:07:36.079Z,71.02
2022-09-20T06:08:36.086Z,70.92
2022-09-20T06:09:36.097Z,70.79
2022-09-20T06:10:36.076Z,70.73
2022-09-20T06:11:36.085Z,70.74
2022-09-20T06:12:36.179Z,70.74
2022-09-20T06:13:36.077Z,70.80
2022-09-20T06:14:36.085Z,70.82
2022-09-20T06:15:36.068Z,70.82
2022-09-20T06:16:36.149Z,70.82
2022-09-20T06:17:36.055Z,70.75
2022-09-20T06:18:36.056Z,70.69
2022-09-20T06:19:36.066Z,70.72
2022-09-20T06:20:36.041Z,70.80
2022-09-20T06:21:36.077Z,70.94
2022-09-20T06:22:36.043Z,71.01
2022-09-20T06:23:36.047Z,71.10
2022-09-20T06:24:36.063Z,71.23
2022-09-20T06:25:36.053Z,70.95
2022-09-20T06:26:36.042Z,71.21
2022-09-20T06:27:36.049Z,71.01
2022-09-20T06:28:36.054Z,71.09
2022-09-20T06:29:36.052Z,70.55
2022-09-20T06:30:36.095Z,70.94
2022-09-20T06:31:36.041Z,71.24
2022-09-20T06:32:36.038Z,71.44
2022-09-20T06:33:36.040Z,71.65
2022-09-20T06:34:36.051Z,71.81
2022-09-20T06:35:36.042Z,71.80
2022-09-20T06:36:36.040Z,71.78
2022-09-20T06:37:36.050Z,71.71
2022-09-20T06:38:36.051Z,71.67
2022-09-20T06:39:36.049Z,71.62
2022-09-20T06:40:36.071Z,71.61
2022-09-20T06:41:36.052Z,71.66
2022-09-20T06:42:36.058Z,71.69
2022-09-20T06:43:36.088Z,71.71
2022-09-20T06:44:36.077Z,71.67
2022-09-20T06:45:36.154Z,71.70
2022-09-20T06:46:36.097Z,71.86
2022-09-20T06:47:38.764Z,71.81
2022-09-20T06:48:36.108Z,71.81
2022-09-20T06:49:36.105Z,71.97
2022-09-20T06:50:36.107Z,71.90
2022-09-20T06:51:36.115Z,71.74
2022-09-20T06:52:36.118Z,71.94
2022-09-20T06:53:36.133Z,72.27
2022-09-20T06:54:36.125Z,72.42
2022-09-20T06:55:36.125Z,72.43
2022-09-20T06:56:36.123Z,72.50
2022-09-20T06:57:36.133Z,72.47
2022-09-20T06:58:36.135Z,72.59
2022-09-20T06:59:36.124Z,72.65
2022-09-20T07:00:36.122Z,72.68
2022-09-20T07:01:36.141Z,72.74
2022-09-20T07:02:36.190Z,72.75
2022-09-20T07:03:36.131Z,72.72
2022-09-20T07:04:36.124Z,72.76
2022-09-20T07:05:36.131Z,72.77
2022-09-20T07:06:36.130Z,72.81
2022-09-20T07:07:36.133Z,72.80
2022-09-20T07:08:36.132Z,72.86
2022-09-20T07:09:36.148Z,72.95
2022-09-20T07:10:36.131Z,73.07
2022-09-20T07:11:36.121Z,72.94
2022-09-20T07:12:36.111Z,72.94
2022-09-20T07:13:36.104Z,72.87
2022-09-20T07:14:36.125Z,72.79
2022-09-20T07:15:36.100Z,72.75
2022-09-20T07:16:36.166Z,72.82
2022-09-20T07:17:36.090Z,72.92
2022-09-20T07:18:36.097Z,72.99
2022-09-20T07:19:36.097Z,73.08
2022-09-20T07:20:36.088Z,73.26
2022-09-20T07:21:36.079Z,73.28
2022-09-20T07:22:36.079Z,73.37
2022-09-20T07:23:36.078Z,73.45
2022-09-20T07:24:36.078Z,73.34
2022-09-20T07:25:36.069Z,73.40
2022-09-20T07:26:36.066Z,73.60
2022-09-20T07:27:36.069Z,73.67
2022-09-20T07:28:36.064Z,73.87
2022-09-20T07:29:36.070Z,73.62
2022-09-20T07:30:36.056Z,73.61
2022-09-20T07:31:36.081Z,73.57
2022-09-20T07:32:36.057Z,73.53
2022-09-20T07:33:36.053Z,73.44
2022-09-20T07:34:36.073Z,73.38
2022-09-20T07:35:36.044Z,73.43
2022-09-20T07:36:36.043Z,73.41
2022-09-20T07:37:37.205Z,73.48
2022-09-20T07:38:36.045Z,73.51
2022-09-20T07:39:36.044Z,73.53
2022-09-20T07:40:36.093Z,73.63
2022-09-20T07:41:36.034Z,73.62
2022-09-20T07:42:36.044Z,73.62
2022-09-20T07:43:36.052Z,73.64
2022-09-20T07:44:36.054Z,73.64
2022-09-20T07:45:36.085Z,73.74
2022-09-20T07:46:36.042Z,73.76
2022-09-20T07:47:36.053Z,73.79
2022-09-20T07:48:36.054Z,73.79
2022-09-20T07:49:36.082Z,73.78
2022-09-20T07:50:36.052Z,73.83
2022-09-20T07:51:36.052Z,74.01
2022-09-20T07:52:36.052Z,74.03
2022-09-20T07:53:36.053Z,73.86
2022-09-20T07:54:36.068Z,74.14
2022-09-20T07:55:36.094Z,74.32
2022-09-20T07:56:36.050Z,74.44
2022-09-20T07:57:36.050Z,74.47
2022-09-20T07:58:36.080Z,74.60
2022-09-20T07:59:36.050Z,74.65
2022-09-20T08:00:36.048Z,74.60
2022-09-20T08:01:36.061Z,74.47
2022-09-20T08:02:36.065Z,74.35
2022-09-20T08:03:36.027Z,74.30
2022-09-20T08:04:36.029Z,74.28
2022-09-20T08:05:36.019Z,74.11
2022-09-20T08:06:36.018Z,74.07
2022-09-20T08:07:36.017Z,74.00
2022-09-20T08:08:36.017Z,73.95
2022-09-20T08:09:36.027Z,73.91
2022-09-20T08:10:36.027Z,73.87
2022-09-20T08:11:36.026Z,73.91
2022-09-20T08:14:37.027Z,74.13
2022-09-20T08:15:36.005Z,74.04
2022-09-20T08:16:36.013Z,73.93
2022-09-20T08:17:35.995Z,73.89
2022-09-20T08:18:36.005Z,73.84
2022-09-20T08:19:36.007Z,73.83
2022-09-20T08:20:35.995Z,73.79
2022-09-20T08:21:35.994Z,73.70
2022-09-20T08:22:35.993Z,73.63
2022-09-20T08:23:35.994Z,73.48
2022-09-20T08:24:36.003Z,73.38
2022-09-20T08:25:35.986Z,73.21
2022-09-20T08:26:36.006Z,73.16
2022-09-20T08:27:35.992Z,73.14
2022-09-20T08:28:35.993Z,73.11
2022-09-20T08:29:35.991Z,73.09
2022-09-20T08:30:35.982Z,73.21
2022-09-20T08:31:36.020Z,73.25
2022-09-20T08:32:35.980Z,73.25
2022-09-20T08:33:35.973Z,73.28
2022-09-20T08:34:35.981Z,73.28
2022-09-20T08:35:38.082Z,73.27
2022-09-20T08:36:36.971Z,73.19
2022-09-20T08:37:36.046Z,73.06
2022-09-20T08:40:37.024Z,73.32
2022-09-20T08:41:35.971Z,73.39
2022-09-20T08:42:40.539Z,73.29
2022-09-20T08:43:36.948Z,73.11
2022-09-20T08:44:35.992Z,73.02
2022-09-20T08:45:35.975Z,73.12
2022-09-20T08:46:36.018Z,73.43
2022-09-20T08:47:36.049Z,73.49
2022-09-20T08:48:35.948Z,73.49
2022-09-20T08:49:35.952Z,73.41
2022-09-20T08:50:35.933Z,73.31
2022-09-20T08:51:35.927Z,73.25
2022-09-20T08:52:36.664Z,73.15
2022-09-20T08:53:35.927Z,73.41
2022-09-20T08:54:35.916Z,73.36
2022-09-20T08:55:37.240Z,73.25
2022-09-20T08:56:35.886Z,73.47
2022-09-20T08:57:35.885Z,73.64
2022-09-20T08:58:35.885Z,73.79
2022-09-20T08:59:35.905Z,74.09
2022-09-20T09:00:35.884Z,74.11
2022-09-20T09:01:35.882Z,73.99
2022-09-20T09:02:35.955Z,73.85
2022-09-20T09:03:35.929Z,73.71
2022-09-20T09:04:35.926Z,73.51
2022-09-20T09:05:35.890Z,73.32
2022-09-20T09:06:35.882Z,73.19
2022-09-20T09:07:35.872Z,73.08
2022-09-20T09:08:38.823Z,73.01
2022-09-20T09:09:37.757Z,73.02
2022-09-20T09:10:35.870Z,73.00
2022-09-20T09:11:35.852Z,73.22
2022-09-20T09:12:35.851Z,73.42
2022-09-20T09:13:35.841Z,73.42
2022-09-20T09:14:35.862Z,73.37
2022-09-20T09:15:35.849Z,73.35
2022-09-20T09:16:36.450Z,73.36
2022-09-20T09:17:35.850Z,73.53
2022-09-20T09:18:35.855Z,73.74
2022-09-20T09:19:35.860Z,73.63
2022-09-20T09:20:35.836Z,73.51
2022-09-20T09:21:35.829Z,73.46
2022-09-20T09:22:35.829Z,73.39
2022-09-20T09:23:35.828Z,73.39
2022-09-20T09:24:35.835Z,73.36
2022-09-20T09:25:35.849Z,73.33
2022-09-20T09:26:35.817Z,73.31
2022-09-20T09:27:35.816Z,73.31
2022-09-20T09:28:35.833Z,73.26
2022-09-20T09:29:35.818Z,73.30
2022-09-20T09:30:35.808Z,73.28
2022-09-20T09:31:35.869Z,73.63
2022-09-20T09:32:35.813Z,73.72
2022-09-20T09:33:35.806Z,73.71
2022-09-20T09:34:35.806Z,73.58
2022-09-20T09:35:35.797Z,73.30
2022-09-20T09:36:35.786Z,72.96
2022-09-20T09:37:35.783Z,72.73
2022-09-20T09:38:35.786Z,72.65
2022-09-20T09:39:35.785Z,72.61
2022-09-20T09:40:35.799Z,72.61
2022-09-20T09:41:35.779Z,72.60
2022-09-20T09:42:35.765Z,72.72
2022-09-20T09:43:35.744Z,72.92
2022-09-20T09:44:35.761Z,72.91
2022-09-20T09:45:35.795Z,72.79
2022-09-20T09:46:35.723Z,72.94
2022-09-20T09:47:35.723Z,72.92
2022-09-20T09:48:38.582Z,73.02
2022-09-20T09:49:35.734Z,73.12
2022-09-20T09:50:35.753Z,72.98
2022-09-20T09:51:35.712Z,72.92
2022-09-20T09:52:35.712Z,72.79
2022-09-20T09:53:35.783Z,72.60
2022-09-20T09:54:35.729Z,72.43
2022-09-20T09:55:35.719Z,72.40
2022-09-20T09:56:35.693Z,72.57
2022-09-20T09:57:35.688Z,72.69
2022-09-20T09:58:35.742Z,72.64
2022-09-20T09:59:35.679Z,72.70
2022-09-20T10:00:35.668Z,72.76
2022-09-20T10:01:35.729Z,72.76
2022-09-20T10:02:35.673Z,72.58
2022-09-20T10:03:35.642Z,72.42
2022-09-20T10:04:35.649Z,72.30
2022-09-20T10:05:35.626Z,72.25
2022-09-20T10:06:35.618Z,72.26
2022-09-20T10:07:35.628Z,72.34
2022-09-20T10:08:35.611Z,72.51
2022-09-20T10:09:37.348Z,72.51
2022-09-20T10:10:35.596Z,72.51
2022-09-20T10:11:35.587Z,72.22
2022-09-20T10:12:35.597Z,72.05
2022-09-20T10:13:40.277Z,71.82
2022-09-20T10:14:36.586Z,71.75
2022-09-20T10:15:35.577Z,71.78
2022-09-20T10:16:35.591Z,72.03
2022-09-20T10:17:35.574Z,72.15
2022-09-20T10:18:35.563Z,72.20
2022-09-20T10:19:35.565Z,72.28
2022-09-20T10:20:35.547Z,72.42
2022-09-20T10:21:35.564Z,72.68
2022-09-20T10:22:35.544Z,73.04
2022-09-20T10:23:58.965Z,73.06
2022-09-20T10:24:36.533Z,72.60
2022-09-20T10:25:35.512Z,72.58
2022-09-20T10:26:35.503Z,72.43
2022-09-20T10:27:35.504Z,71.84
2022-09-20T10:28:35.497Z,72.16
2022-09-20T10:29:35.493Z,71.19
2022-09-20T10:30:35.515Z,71.19
2022-09-20T10:31:35.541Z,71.12
2022-09-20T10:32:35.452Z,70.71
2022-09-20T10:33:35.441Z,70.71
2022-09-20T10:34:35.440Z,71.05
2022-09-20T10:35:35.433Z,71.56
2022-09-20T10:36:35.411Z,71.76
2022-09-20T10:37:35.401Z,71.90
2022-09-20T10:38:35.397Z,72.02
2022-09-20T10:39:35.401Z,72.10
2022-09-20T10:40:35.396Z,72.14
2022-09-20T10:41:35.387Z,71.86
2022-09-20T10:42:35.350Z,71.72
2022-09-20T10:43:35.339Z,71.44
2022-09-20T10:44:35.350Z,71.46
2022-09-20T10:46:36.365Z,71.92
2022-09-20T10:47:35.307Z,71.96
2022-09-20T10:48:35.304Z,71.97
2022-09-20T10:49:35.308Z,71.97
2022-09-20T10:50:35.287Z,72.02
2022-09-20T10:51:35.275Z,72.15
2022-09-20T10:52:35.276Z,72.22
2022-09-20T10:53:35.265Z,72.25
2022-09-20T10:54:35.279Z,72.22
2022-09-20T10:55:35.246Z,72.18
2022-09-20T10:56:35.237Z,72.25
2022-09-20T10:57:35.225Z,72.24
2022-09-20T10:58:35.215Z,72.36
2022-09-20T10:59:35.215Z,72.28
2022-09-20T11:00:35.199Z,72.01
2022-09-20T11:01:35.234Z,71.82
2022-09-20T11:02:35.220Z,71.95
2022-09-20T11:03:35.164Z,72.07
2022-09-20T11:04:35.172Z,72.20
2022-09-20T11:05:35.228Z,72.29
2022-09-20T11:06:35.121Z,72.24
2022-09-20T11:07:35.113Z,71.97
2022-09-20T11:08:35.143Z,71.76
2022-09-20T11:09:35.097Z,71.61
2022-09-20T11:10:35.090Z,71.45
2022-09-20T11:11:35.071Z,71.33
2022-09-20T11:12:35.051Z,71.18
2022-09-20T11:13:35.050Z,71.15
2022-09-20T11:14:35.032Z,71.26
2022-09-20T11:17:08.205Z,71.39
2022-09-20T11:18:07.725Z,71.56
2022-09-20T11:19:07.692Z,71.70
2022-09-20T11:20:07.981Z,71.84
2022-09-20T11:21:07.626Z,71.89
2022-09-20T11:28:32.547Z,71.45
2022-09-20T11:29:20.210Z,71.06
2022-09-20T11:30:20.206Z,70.84
2022-09-20T11:31:20.256Z,70.86
2022-09-20T11:32:20.179Z,70.80
2022-09-20T11:33:20.145Z,70.73
2022-09-20T11:34:20.133Z,70.54
2022-09-20T11:35:20.116Z,70.47
2022-09-20T11:36:20.095Z,70.36
2022-09-20T11:37:20.096Z,70.29
2022-09-20T11:38:20.062Z,70.31
2022-09-20T11:39:20.042Z,70.32
2022-09-20T11:40:20.060Z,70.40
2022-09-20T11:41:20.012Z,70.44
2022-09-20T11:42:19.993Z,70.42
2022-09-20T11:43:19.974Z,70.54
2022-09-20T11:44:19.963Z,70.61
2022-09-20T11:45:19.941Z,70.64
2022-09-20T11:46:19.977Z,70.64
2022-09-20T11:47:42.715Z,70.47
2022-09-20T11:48:20.892Z,70.43
2022-09-20T11:49:19.871Z,70.61
2022-09-20T11:50:19.842Z,70.95
2022-09-20T11:51:19.841Z,71.22
2022-09-20T11:52:19.801Z,71.27
2022-09-20T11:53:19.791Z,71.17
2022-09-20T11:54:19.762Z,71.15
2022-09-20T11:55:19.740Z,71.17
2022-09-20T11:56:19.730Z,71.24
2022-09-20T11:57:19.855Z,71.08
2022-09-20T11:58:19.679Z,70.90
2022-09-20T11:59:19.660Z,70.79
2022-09-20T12:00:19.652Z,70.71
2022-09-20T12:01:19.649Z,70.69
2022-09-20T12:02:19.705Z,70.81
2022-09-20T12:03:19.638Z,70.73
2022-09-20T12:04:35.376Z,70.77
2022-09-20T12:05:20.565Z,70.90
2022-09-20T12:06:19.548Z,71.12
2022-09-20T12:07:19.516Z,71.00
2022-09-20T12:08:19.496Z,71.03
2022-09-20T12:09:19.468Z,71.15
2022-09-20T12:10:19.457Z,71.21
2022-09-20T12:11:19.446Z,71.08
2022-09-20T12:12:19.425Z,70.75
2022-09-20T12:13:19.396Z,70.77
2022-09-20T12:14:19.375Z,70.71
2022-09-20T12:15:19.355Z,70.60
2022-09-20T12:16:19.376Z,70.60
2022-09-20T12:17:19.324Z,70.00
2022-09-20T12:18:19.304Z,69.92
2022-09-20T12:19:19.295Z,69.78
2022-09-20T12:20:19.572Z,69.70
2022-09-20T12:21:19.283Z,69.54
2022-09-20T12:22:19.234Z,69.40
2022-09-20T12:23:19.223Z,69.46
2022-09-20T12:24:19.204Z,69.57
2022-09-20T12:25:19.173Z,69.44
2022-09-20T12:26:19.163Z,69.46
2022-09-20T12:27:19.162Z,69.63
2022-09-20T12:28:19.113Z,69.67
2022-09-20T12:29:19.092Z,69.75
2022-09-20T12:30:19.071Z,69.58
2022-09-20T12:31:19.167Z,69.87
2022-09-20T12:32:19.050Z,69.77
2022-09-20T12:33:19.031Z,69.86
2022-09-20T12:34:19.018Z,69.96
2022-09-20T12:35:18.985Z,70.08
2022-09-20T12:36:18.970Z,70.10
2022-09-20T12:37:18.946Z,70.01
2022-09-20T12:38:18.932Z,69.87
2022-09-20T12:39:23.240Z,69.77
2022-09-20T12:40:19.894Z,69.78
2022-09-20T12:41:27.578Z,69.84
2022-09-20T12:42:22.589Z,69.85
2022-09-20T12:43:18.828Z,69.90
2022-09-20T12:44:18.798Z,69.98
2022-09-20T12:45:18.796Z,69.90
2022-09-20T12:46:18.803Z,70.48
2022-09-20T12:47:18.747Z,70.79
2022-09-20T12:48:18.731Z,71.08
2022-09-20T12:49:18.717Z,71.26
2022-09-20T12:50:18.716Z,71.31
2022-09-20T12:51:18.689Z,71.64
2022-09-20T12:52:18.664Z,71.54
2022-09-20T12:53:18.647Z,71.56
2022-09-20T12:54:18.641Z,71.83
2022-09-20T12:55:18.617Z,71.96
2022-09-20T12:56:18.614Z,71.70
2022-09-20T12:57:18.582Z,71.37
2022-09-20T12:58:18.559Z,71.19
2022-09-20T12:59:18.536Z,71.23
2022-09-20T13:00:18.512Z,71.36
2022-09-20T13:01:18.530Z,71.52
2022-09-20T13:02:18.503Z,71.60
2022-09-20T13:03:18.454Z,71.75
2022-09-20T13:04:18.413Z,71.79
2022-09-20T13:05:18.402Z,71.67